Flight Track Log - Related Links

Times and Time Zones

All times are in EDT time to prevent confusion due to time zone crossing. See the UAL118 flight status page for this flight to view local times or setup timezone preferences in your user account.


Time Position Orientation Groundspeed Altitude Reporting Facility
EDT Latitude Longitude Course Direction KTS MPH feet Rate Location/Type
Sat 05:32:00 AM 51.8048 1.0600 289° West  Level FlightAware Approximate
Sat 05:33:00 AM 51.8330 0.8918 284° West  Level FlightAware Approximate
Sat 05:34:00 AM 51.8584 0.7222 284° West  Level FlightAware Approximate
Sat 05:35:00 AM 51.8893 0.5551 288° West  Level FlightAware Approximate
Sat 05:36:00 AM 51.9227 0.3891 288° West  Level FlightAware Approximate
Sat 05:37:00 AM 51.9560 0.2228 288° West  Level FlightAware Approximate
Sat 05:38:00 AM 51.9889 0.0562 288° West  Level FlightAware Approximate
Sat 05:39:00 AM 52.0205 -0.1112 287° West  Level FlightAware Approximate
Sat 05:40:00 AM 52.0513 -0.2791 287° West  Level FlightAware Approximate
Sat 05:41:00 AM 52.0819 -0.4472 287° West  Level FlightAware Approximate
Sat 05:42:00 AM 52.1122 -0.6155 286° West  Level FlightAware Approximate
Sat 05:43:00 AM 52.1423 -0.7841 286° West  Level FlightAware Approximate
Sat 05:44:00 AM 52.1721 -0.9529 286° West  Level FlightAware Approximate
Sat 05:45:00 AM 52.2017 -1.1220 286° West  Level FlightAware Approximate
Sat 05:46:00 AM 52.2310 -1.2913 286° West  Level FlightAware Approximate
Sat 05:47:00 AM 52.2600 -1.4608 286° West  Level FlightAware Approximate
Sat 05:48:00 AM 52.2903 -1.6298 287° West  Level FlightAware Approximate
Sat 05:49:00 AM 52.3208 -1.7989 287° West  Level FlightAware Approximate
Sat 05:50:00 AM 52.3511 -1.9681 286° West  Level FlightAware Approximate
Sat 05:51:00 AM 52.3811 -2.1376 286° West  Level FlightAware Approximate
Sat 05:52:00 AM 52.4093 -2.3081 285° West  Level FlightAware Approximate
Sat 05:53:00 AM 52.4371 -2.4789 285° West  Level FlightAware Approximate
Sat 05:54:00 AM 52.4647 -2.6498 285° West  Level FlightAware Approximate
Sat 05:55:00 AM 52.4894 -2.8216 285° West  Level FlightAware Approximate
Sat 05:56:00 AM 52.5163 -2.9930 285° West  Level FlightAware Approximate
Sat 05:57:00 AM 52.5429 -3.1647 284° West  Level FlightAware Approximate
Sat 05:58:00 AM 52.5694 -3.3365 284° West  Level FlightAware Approximate
Sat 05:59:00 AM 52.5955 -3.5086 284° West  Level FlightAware Approximate
Sat 06:00:00 AM 52.6214 -3.6809 284° West  Level FlightAware Approximate
Sat 06:01:00 AM 52.6471 -3.8533 284° West  Level FlightAware Approximate
Sat 06:02:00 AM 52.6725 -4.0260 284° West  Level FlightAware Approximate
Sat 06:03:00 AM 52.6966 -4.1993 282° West  Level FlightAware Approximate
Sat 06:04:00 AM 52.7195 -4.3731 282° West  Level FlightAware Approximate
Sat 06:05:00 AM 52.7422 -4.5471 282° West  Level FlightAware Approximate
Sat 06:06:00 AM 52.7647 -4.7213 282° West  Level FlightAware Approximate
Sat 06:07:00 AM 52.7868 -4.8956 282° West  Level FlightAware Approximate
Sat 06:08:00 AM 52.8095 -5.0699 283° West  Level FlightAware Approximate
Sat 06:09:00 AM 52.8328 -5.2440 283° West  Level FlightAware Approximate
Sat 06:10:00 AM 52.8559 -5.4183 282° West  Level FlightAware Approximate
Sat 06:11:00 AM 52.8794 -5.5926 283° West  Level FlightAware Approximate
Sat 06:12:00 AM 52.9030 -5.7668 283° West  Level FlightAware Approximate
Sat 06:13:00 AM 52.9265 -5.9413 283° West  Level FlightAware Approximate
Sat 06:14:00 AM 52.9496 -6.1159 282° West  Level FlightAware Approximate
Sat 06:15:00 AM 52.9726 -6.2908 282° West  Level FlightAware Approximate
Sat 06:16:00 AM 52.9952 -6.4658 282° West  Level FlightAware Approximate
Sat 06:17:00 AM 53.0176 -6.6410 282° West  Level FlightAware Approximate
Sat 06:18:00 AM 53.0392 -6.8165 282° West  Level FlightAware Approximate
Sat 06:19:00 AM 53.0606 -6.9923 281° West  Level FlightAware Approximate
Sat 06:20:00 AM 53.0816 -7.1682 281° West  Level FlightAware Approximate
Sat 06:21:00 AM 53.1025 -7.3443 281° West  Level FlightAware Approximate
Sat 06:22:00 AM 53.1230 -7.5205 281° West  Level FlightAware Approximate
Sat 06:23:00 AM 53.1433 -7.6969 281° West  Level FlightAware Approximate
Sat 06:24:00 AM 53.1634 -7.8735 281° West  Level FlightAware Approximate
Sat 06:25:00 AM 53.1832 -8.0503 281° West  Level FlightAware Approximate
Sat 06:26:00 AM 53.2027 -8.2272 281° West  Level FlightAware Approximate
Sat 06:27:00 AM 53.2219 -8.4043 280° West  Level FlightAware Approximate
Sat 06:28:00 AM 53.2409 -8.5815 280° West  Level FlightAware Approximate
Sat 06:29:00 AM 53.2597 -8.7589 280° West  Level FlightAware Approximate
Sat 06:30:00 AM 53.2781 -8.9364 280° West  Level FlightAware Approximate
Sat 06:31:00 AM 53.2963 -9.1141 280° West  Level FlightAware Approximate
Sat 06:32:00 AM 53.3143 -9.2920 280° West  Level FlightAware Approximate
Sat 06:33:00 AM 53.3320 -9.4700 280° West  Level FlightAware Approximate
Sat 06:34:00 AM 53.3494 -9.6481 279° West  Level FlightAware Approximate
Sat 06:35:00 AM 53.3665 -9.8264 279° West  Level FlightAware Approximate
Sat 06:36:00 AM 53.3834 -10.0048 279° West  Level FlightAware Approximate
Sat 06:37:00 AM 53.4000 -10.1834 279° West  Level FlightAware Approximate
Sat 06:38:00 AM 53.4160 -10.3622 279° West  Level FlightAware Approximate
Sat 06:39:00 AM 53.4317 -10.5411 278° West  Level FlightAware Approximate
Sat 06:40:00 AM 53.4471 -10.7202 278° West  Level FlightAware Approximate
Sat 06:41:00 AM 53.4623 -10.8994 278° West  Level FlightAware Approximate
Sat 06:42:00 AM 53.4772 -11.0787 278° West  Level FlightAware Approximate
Sat 06:43:00 AM 53.4919 -11.2582 278° West  Level FlightAware Approximate
Sat 06:44:00 AM 53.5062 -11.4377 278° West  Level FlightAware Approximate
Sat 06:45:00 AM 53.5203 -11.6174 278° West  Level FlightAware Approximate
Sat 06:46:00 AM 53.5342 -11.7972 277° West  Level FlightAware Approximate
Sat 06:47:00 AM 53.5477 -11.9771 277° West  Level FlightAware Approximate
Sat 06:48:00 AM 53.5610 -12.1572 277° West  Level FlightAware Approximate
Sat 06:49:00 AM 53.5740 -12.3373 277° West  Level FlightAware Approximate
Sat 06:50:00 AM 53.5868 -12.5176 277° West  Level FlightAware Approximate
Sat 06:51:00 AM 53.5993 -12.6980 277° West  Level FlightAware Approximate
Sat 06:52:00 AM 53.6115 -12.8784 277° West  Level FlightAware Approximate
Sat 06:53:00 AM 53.6234 -13.0590 276° West  Level FlightAware Approximate
Sat 06:54:00 AM 53.6351 -13.2397 276° West  Level FlightAware Approximate
Sat 06:55:00 AM 53.6464 -13.4205 276° West  Level FlightAware Approximate
Sat 06:56:00 AM 53.6576 -13.6013 276° West  Level FlightAware Approximate
Sat 06:57:00 AM 53.6684 -13.7823 276° West  Level FlightAware Approximate
Sat 06:58:00 AM 53.6790 -13.9634 276° West  Level FlightAware Approximate
Sat 06:59:00 AM 53.6893 -14.1445 276° West  Level FlightAware Approximate
Sat 07:00:00 AM 53.6993 -14.3258 275° West  Level FlightAware Approximate
Sat 07:01:00 AM 53.7090 -14.5071 275° West  Level FlightAware Approximate
Sat 07:02:00 AM 53.7185 -14.6885 275° West  Level FlightAware Approximate
Sat 07:03:00 AM 53.7277 -14.8700 275° West  Level FlightAware Approximate
Sat 07:04:00 AM 53.7366 -15.0515 275° West  Level FlightAware Approximate
Sat 07:05:00 AM 53.7503 -15.2634 276° West  Level Estimated
Sat 07:06:00 AM 53.7636 -15.4755 276° West  Level Estimated
Sat 07:07:00 AM 53.7765 -15.6876 276° West  Level Estimated
Sat 07:08:00 AM 53.7890 -15.9000 276° West  Level Estimated
Sat 07:09:00 AM 53.8012 -16.1124 276° West  Level Estimated
Sat 07:10:00 AM 53.8129 -16.3250 275° West  Level Estimated
Sat 07:11:00 AM 53.8243 -16.5376 275° West  Level Estimated
Sat 07:12:00 AM 53.8354 -16.7504 275° West  Level Estimated
Sat 07:13:00 AM 53.8460 -16.9633 275° West  Level Estimated
Sat 07:14:00 AM 53.8563 -17.1763 275° West  Level Estimated
Sat 07:15:00 AM 53.8662 -17.3895 275° West  Level Estimated
Sat 07:16:00 AM 53.8757 -17.6027 274° West  Level Estimated
Sat 07:17:00 AM 53.8848 -17.8160 274° West  Level Estimated
Sat 07:18:00 AM 53.8936 -18.0294 274° West  Level Estimated
Sat 07:19:00 AM 53.9020 -18.2428 274° West  Level Estimated
Sat 07:20:00 AM 53.9100 -18.4564 274° West  Level Estimated
Sat 07:21:00 AM 53.9176 -18.6700 274° West  Level Estimated
Sat 07:22:00 AM 53.9248 -18.8838 273° West  Level Estimated
Sat 07:23:00 AM 53.9317 -19.0976 273° West  Level Estimated
Sat 07:24:00 AM 53.9382 -19.3114 273° West  Level Estimated
Sat 07:25:00 AM 53.9443 -19.5254 273° West  Level Estimated
Sat 07:26:00 AM 53.9500 -19.7393 273° West  Level Estimated
Sat 07:27:00 AM 53.9553 -19.9534 273° West  Level Estimated
Sat 07:28:00 AM 53.9603 -20.1675 272° West  Level Estimated
Sat 07:29:00 AM 53.9649 -20.3816 272° West  Level Estimated
Sat 07:29:00 AM 50.0000 -20.0000 274° West 481 554 37,000  Level ETMS Enhanced Traffic Management System
Sat 07:30:00 AM 53.9691 -20.5958 272° West  Level Estimated
Sat 07:31:00 AM 53.9729 -20.8100 272° West  Level Estimated
Sat 07:32:00 AM 53.9763 -21.0243 272° West  Level Estimated
Sat 07:33:00 AM 53.9794 -21.2386 271° West  Level Estimated
Sat 07:34:00 AM 53.9821 -21.4529 271° West  Level Estimated
Sat 07:35:00 AM 50.1008 -23.7482 271° West 481 554 37,000  Level FlightAware Transoceanic
Sat 07:36:00 AM 50.1029 -23.9568 271° West 481 554 37,000  Level FlightAware Transoceanic
Sat 07:37:00 AM 50.1045 -24.1654 271° West 481 554 37,000  Level FlightAware Transoceanic
Sat 07:38:00 AM 50.1058 -24.3741 270° West 481 554 37,000  Level FlightAware Transoceanic
Sat 07:39:00 AM 50.1068 -24.5827 270° West 481 554 37,000  Level FlightAware Transoceanic
Sat 07:40:00 AM 50.1073 -24.7914 270° West 481 554 37,000  Level FlightAware Transoceanic
Sat 07:41:00 AM 50.1075 -25.0000 270° West 481 554 37,000  Level FlightAware Transoceanic
Sat 07:42:00 AM 50.1073 -25.2086 270° West 481 554 37,000  Level FlightAware Transoceanic
Sat 07:43:00 AM 50.1068 -25.4173 270° West 481 554 37,000  Level FlightAware Transoceanic
Sat 07:44:00 AM 50.1058 -25.6259 270° West 481 554 37,000  Level FlightAware Transoceanic
Sat 07:45:00 AM 50.1045 -25.8346 269° West 481 554 37,000  Level FlightAware Transoceanic
Sat 07:46:00 AM 50.1029 -26.0432 269° West 481 554 37,000  Level FlightAware Transoceanic
Sat 07:47:00 AM 50.1008 -26.2518 269° West 481 554 37,000  Level FlightAware Transoceanic
Sat 07:48:00 AM 50.0984 -26.4603 269° West 481 554 37,000  Level FlightAware Transoceanic
Sat 07:49:00 AM 50.0956 -26.6689 269° West 481 554 37,000  Level FlightAware Transoceanic
Sat 07:50:00 AM 50.0924 -26.8774 269° West 481 554 37,000  Level FlightAware Transoceanic
Sat 07:51:00 AM 50.0888 -27.0859 268° West 481 554 37,000  Level FlightAware Transoceanic
Sat 07:52:00 AM 50.0849 -27.2944 268° West 481 554 37,000  Level FlightAware Transoceanic
Sat 07:53:00 AM 50.0806 -27.5028 268° West 481 554 37,000  Level FlightAware Transoceanic
Sat 07:54:00 AM 50.0760 -27.7112 268° West 481 554 37,000  Level FlightAware Transoceanic
Sat 07:55:00 AM 50.0709 -27.9195 268° West 481 554 37,000  Level FlightAware Transoceanic
Sat 07:56:00 AM 50.0655 -28.1278 268° West 481 554 37,000  Level FlightAware Transoceanic
Sat 07:57:00 AM 50.0597 -28.3361 267° West 481 554 37,000  Level FlightAware Transoceanic
Sat 07:58:00 AM 50.0535 -28.5443 267° West 481 554 37,000  Level FlightAware Transoceanic
Sat 07:59:00 AM 50.0470 -28.7525 267° West 481 554 37,000  Level FlightAware Transoceanic
Sat 08:00:00 AM 50.0401 -28.9605 267° West 481 554 37,000  Level FlightAware Transoceanic
Sat 08:01:00 AM 50.0328 -29.1686 267° West 481 554 37,000  Level FlightAware Transoceanic
Sat 08:02:00 AM 50.0252 -29.3765 267° West 481 554 37,000  Level FlightAware Transoceanic
Sat 08:03:00 AM 50.0172 -29.5844 266° West 481 554 37,000  Level FlightAware Transoceanic
Sat 08:04:00 AM 50.0088 -29.7922 266° West 481 554 37,000  Level FlightAware Transoceanic
Sat 08:05:00 AM 50.0005 -29.9880 266° West  Level FlightAware Approximate
Sat 08:06:00 AM 49.9919 -30.1836 266° West  Level FlightAware Approximate
Sat 08:07:00 AM 49.9748 -30.1674 257° West  Level FlightAware Approximate
Sat 08:08:00 AM 49.9457 -30.3581 257° West  Level FlightAware Approximate
Sat 08:09:00 AM 49.9163 -30.5486 257° West  Level FlightAware Approximate
Sat 08:09:00 AM 50.0000 -30.0000 257° West 483 556 37,000  Level ETMS Enhanced Traffic Management System
Sat 08:10:00 AM 49.8866 -30.7388 256° West  Level FlightAware Approximate
Sat 08:11:00 AM 49.8566 -30.9288 256° West  Level FlightAware Approximate
Sat 08:12:00 AM 49.8262 -31.1185 256° West  Level FlightAware Approximate
Sat 08:13:00 AM 49.7956 -31.3080 256° West  Level FlightAware Approximate
Sat 08:14:00 AM 49.7647 -31.4973 256° West  Level FlightAware Approximate
Sat 08:15:00 AM 49.6770 -32.0223 255° West 483 556 37,000  Level FlightAware Transoceanic
Sat 08:16:00 AM 49.6428 -32.2230 255° West 483 556 37,000  Level FlightAware Transoceanic
Sat 08:17:00 AM 49.6082 -32.4235 255° West 483 556 37,000  Level FlightAware Transoceanic
Sat 08:18:00 AM 49.5733 -32.6236 255° West 483 556 37,000  Level FlightAware Transoceanic
Sat 08:19:00 AM 49.5381 -32.8235 255° West 483 556 37,000  Level FlightAware Transoceanic
Sat 08:20:00 AM 49.5024 -33.0231 255° West 483 556 37,000  Level FlightAware Transoceanic
Sat 08:21:00 AM 49.4665 -33.2224 254° West 483 556 37,000  Level FlightAware Transoceanic
Sat 08:22:00 AM 49.4302 -33.4214 254° West 483 556 37,000  Level FlightAware Transoceanic
Sat 08:23:00 AM 49.3936 -33.6200 254° West 483 556 37,000  Level FlightAware Transoceanic
Sat 08:24:00 AM 49.3566 -33.8185 254° West 483 556 37,000  Level FlightAware Transoceanic
Sat 08:25:00 AM 49.3193 -34.0165 254° West 483 556 37,000  Level FlightAware Transoceanic
Sat 08:26:00 AM 49.2817 -34.2144 254° West 483 556 37,000  Level FlightAware Transoceanic
Sat 08:27:00 AM 49.2437 -34.4118 254° West 483 556 37,000  Level FlightAware Transoceanic
Sat 08:28:00 AM 49.2053 -34.6090 253° West 483 556 37,000  Level FlightAware Transoceanic
Sat 08:29:00 AM 49.1667 -34.8059 253° West 483 556 37,000  Level FlightAware Transoceanic
Sat 08:30:00 AM 49.1277 -35.0025 253° West 483 556 37,000  Level FlightAware Transoceanic
Sat 08:31:00 AM 49.0884 -35.1987 253° West 483 556 37,000  Level FlightAware Transoceanic
Sat 08:32:00 AM 49.0487 -35.3947 253° West 483 556 37,000  Level FlightAware Transoceanic
Sat 08:33:00 AM 49.0087 -35.5903 253° West 483 556 37,000  Level FlightAware Transoceanic
Sat 08:34:00 AM 48.9684 -35.7857 252° West 483 556 37,000  Level FlightAware Transoceanic
Sat 08:35:00 AM 48.9278 -35.9807 252° West 483 556 37,000  Level FlightAware Transoceanic
Sat 08:36:00 AM 48.8868 -36.1754 252° West 483 556 37,000  Level FlightAware Transoceanic
Sat 08:37:00 AM 48.8455 -36.3697 252° West 483 556 37,000  Level FlightAware Transoceanic
Sat 08:38:00 AM 48.8039 -36.5638 252° West 483 556 37,000  Level FlightAware Transoceanic
Sat 08:39:00 AM 48.7619 -36.7575 252° West 483 556 37,000  Level FlightAware Transoceanic
Sat 08:40:00 AM 48.7197 -36.9509 252° West 483 556 37,000  Level FlightAware Transoceanic
Sat 08:41:00 AM 48.6771 -37.1440 251° West 483 556 37,000  Level FlightAware Transoceanic
Sat 08:42:00 AM 48.6341 -37.3367 251° West 483 556 37,000  Level FlightAware Transoceanic
Sat 08:43:00 AM 48.5909 -37.5291 251° West 483 556 37,000  Level FlightAware Transoceanic
Sat 08:44:00 AM 48.5473 -37.7212 251° West 483 556 37,000  Level FlightAware Transoceanic
Sat 08:45:00 AM 48.5034 -37.9130 251° West 483 556 37,000  Level FlightAware Transoceanic
Sat 08:46:00 AM 48.4593 -38.1044 251° West 483 556 37,000  Level FlightAware Transoceanic
Sat 08:47:00 AM 48.4147 -38.2955 251° West 483 556 37,000  Level FlightAware Transoceanic
Sat 08:48:00 AM 48.3699 -38.4862 250° West 483 556 37,000  Level FlightAware Transoceanic
Sat 08:49:00 AM 48.3247 -38.6766 250° West 483 556 37,000  Level FlightAware Transoceanic
Sat 08:50:00 AM 48.2793 -38.8667 250° West 483 556 37,000  Level FlightAware Transoceanic
Sat 08:51:00 AM 48.2335 -39.0564 250° West 483 556 37,000  Level FlightAware Transoceanic
Sat 08:52:00 AM 48.1874 -39.2458 250° West 483 556 37,000  Level FlightAware Transoceanic
Sat 08:53:00 AM 48.1410 -39.4349 250° West 483 556 37,000  Level FlightAware Transoceanic
Sat 08:54:00 AM 48.0943 -39.6236 250° West 483 556 37,000  Level FlightAware Transoceanic
Sat 08:55:00 AM 48.0473 -39.8120 249° West 483 556 37,000  Level FlightAware Transoceanic
Sat 08:56:00 AM 48.0029 -39.9884 249° West  Level FlightAware Approximate
Sat 08:57:00 AM 47.9582 -40.1645 249° West  Level FlightAware Approximate
Sat 08:57:00 AM 48.0000 -40.0000 257° West 501 577 37,000  Level ETMS Enhanced Traffic Management System
Sat 08:58:00 AM 47.9750 -40.1592 257° West  Level FlightAware Approximate
Sat 08:59:00 AM 47.9459 -40.3424 257° West  Level FlightAware Approximate
Sat 09:00:00 AM 47.9165 -40.5254 257° West  Level FlightAware Approximate
Sat 09:01:00 AM 47.8869 -40.7082 256° West  Level FlightAware Approximate
Sat 09:02:00 AM 47.8569 -40.8907 256° West  Level FlightAware Approximate
Sat 09:03:00 AM 47.7780 -41.4153 256° West 501 577 37,000  Level FlightAware Transoceanic
Sat 09:04:00 AM 47.7448 -41.6165 256° West 501 577 37,000  Level FlightAware Transoceanic
Sat 09:05:00 AM 47.7113 -41.8174 256° West 501 577 37,000  Level FlightAware Transoceanic
Sat 09:06:00 AM 47.6775 -42.0181 256° West 501 577 37,000  Level FlightAware Transoceanic
Sat 09:07:00 AM 47.6433 -42.2185 256° West 501 577 37,000  Level FlightAware Transoceanic
Sat 09:08:00 AM 47.6088 -42.4187 256° West 501 577 37,000  Level FlightAware Transoceanic
Sat 09:09:00 AM 47.5739 -42.6185 255° West 501 577 37,000  Level FlightAware Transoceanic
Sat 09:10:00 AM 47.5387 -42.8181 255° West 501 577 37,000  Level FlightAware Transoceanic
Sat 09:11:00 AM 47.5031 -43.0175 255° West 501 577 37,000  Level FlightAware Transoceanic
Sat 09:12:00 AM 47.4672 -43.2165 255° West 501 577 37,000  Level FlightAware Transoceanic
Sat 09:13:00 AM 47.4309 -43.4154 255° West 501 577 37,000  Level FlightAware Transoceanic
Sat 09:14:00 AM 47.3943 -43.6139 255° West 501 577 37,000  Level FlightAware Transoceanic
Sat 09:15:00 AM 47.3573 -43.8121 255° West 501 577 37,000  Level FlightAware Transoceanic
Sat 09:16:00 AM 47.3201 -44.0101 254° West 501 577 37,000  Level FlightAware Transoceanic
Sat 09:17:00 AM 47.2824 -44.2078 254° West 501 577 37,000  Level FlightAware Transoceanic
Sat 09:18:00 AM 47.2445 -44.4052 254° West 501 577 37,000  Level FlightAware Transoceanic
Sat 09:19:00 AM 47.2062 -44.6023 254° West 501 577 37,000  Level FlightAware Transoceanic
Sat 09:20:00 AM 47.1675 -44.7991 254° West 501 577 37,000  Level FlightAware Transoceanic
Sat 09:21:00 AM 47.1285 -44.9957 254° West 501 577 37,000  Level FlightAware Transoceanic
Sat 09:22:00 AM 47.0892 -45.1919 254° West 501 577 37,000  Level FlightAware Transoceanic
Sat 09:23:00 AM 47.0495 -45.3879 253° West 501 577 37,000  Level FlightAware Transoceanic
Sat 09:24:00 AM 47.0096 -45.5836 253° West 501 577 37,000  Level FlightAware Transoceanic
Sat 09:25:00 AM 46.9692 -45.7789 253° West 501 577 37,000  Level FlightAware Transoceanic
Sat 09:26:00 AM 46.9286 -45.9740 253° West 501 577 37,000  Level FlightAware Transoceanic
Sat 09:27:00 AM 46.8876 -46.1688 253° West 501 577 37,000  Level FlightAware Transoceanic
Sat 09:28:00 AM 46.8463 -46.3633 253° West 501 577 37,000  Level FlightAware Transoceanic
Sat 09:29:00 AM 46.8046 -46.5575 253° West 501 577 37,000  Level FlightAware Transoceanic
Sat 09:30:00 AM 46.7627 -46.7514 252° West 501 577 37,000  Level FlightAware Transoceanic
Sat 09:31:00 AM 46.7204 -46.9450 252° West 501 577 37,000  Level FlightAware Transoceanic
Sat 09:32:00 AM 46.6778 -47.1382 252° West 501 577 37,000  Level FlightAware Transoceanic
Sat 09:33:00 AM 46.6348 -47.3312 252° West 501 577 37,000  Level FlightAware Transoceanic
Sat 09:34:00 AM 46.5915 -47.5239 252° West 501 577 37,000  Level FlightAware Transoceanic
Sat 09:35:00 AM 46.5480 -47.7162 252° West 501 577 37,000  Level FlightAware Transoceanic
Sat 09:36:00 AM 46.5040 -47.9083 252° West 501 577 37,000  Level FlightAware Transoceanic
Sat 09:37:00 AM 46.4598 -48.1000 251° West 501 577 37,000  Level FlightAware Transoceanic
Sat 09:38:00 AM 46.4152 -48.2914 251° West 501 577 37,000  Level FlightAware Transoceanic
Sat 09:39:00 AM 46.3704 -48.4826 251° West 501 577 37,000  Level FlightAware Transoceanic
Sat 09:40:00 AM 46.3252 -48.6734 251° West 501 577 37,000  Level FlightAware Transoceanic
Sat 09:41:00 AM 46.2797 -48.8638 251° West 501 577 37,000  Level FlightAware Transoceanic
Sat 09:42:00 AM 46.2338 -49.0540 251° West 501 577 37,000  Level FlightAware Transoceanic
Sat 09:43:00 AM 46.1877 -49.2438 251° West 501 577 37,000  Level FlightAware Transoceanic
Sat 09:44:00 AM 46.1412 -49.4334 250° West 501 577 37,000  Level FlightAware Transoceanic
Sat 09:45:00 AM 46.0945 -49.6226 250° West 501 577 37,000  Level FlightAware Transoceanic
Sat 09:46:00 AM 46.0474 -49.8114 250° West 501 577 37,000  Level FlightAware Transoceanic
Sat 09:47:00 AM 46.0009 -49.9802 248° West  Level FlightAware Approximate
Sat 09:48:00 AM 45.9541 -50.1486 248° West  Level FlightAware Approximate
Sat 09:48:00 AM 46.0000 -50.0000 257° West 428 493 37,000  Level ETMS Enhanced Traffic Management System
Sat 09:49:00 AM 45.9774 -50.1388 257° West  Level FlightAware Approximate
Sat 09:49:51 AM 45.9333 -50.3167 257° West 490 564 37,100  Level Gander Center
Sat 09:50:00 AM 45.9485 -50.3153 257° West  Level FlightAware Approximate
Sat 09:50:51 AM 45.9000 -50.5167 257° West 490 564 37,100  Level Gander Center
Sat 09:51:00 AM 45.9193 -50.4917 257° West  Level FlightAware Approximate
Sat 09:51:51 AM 45.9000 -50.6833 270° West 490 564 37,100  Level Gander Center
Sat 09:52:00 AM 45.8898 -50.6676 257° West  Level FlightAware Approximate
Sat 09:52:51 AM 45.8667 -50.9167 258° West 490 564 37,100  Level Gander Center
Sat 09:53:00 AM 45.8601 -50.8434 256° West  Level FlightAware Approximate
Sat 09:53:51 AM 45.8500 -51.0833 262° West 490 564 37,100  Level Gander Center
Sat 09:54:00 AM 45.8242 -51.0563 257° West  Level FlightAware Approximate
Sat 09:54:54 AM 45.8500 -51.3000 270° West 490 564 37,100  Level Moncton Center
Sat 09:55:00 AM 45.7956 -51.2322 257° West  Level FlightAware Approximate
Sat 09:55:54 AM 45.8333 -51.5000 263° West 490 564 37,100  Level Moncton Center
Sat 09:56:54 AM 45.8167 -51.6833 263° West 490 564 37,100  Level Moncton Center
Sat 09:57:51 AM 45.8000 -51.8833 263° West 490 564 37,100  Level Gander Center
Sat 09:58:51 AM 45.7833 -52.0667 263° West 490 564 37,100  Level Gander Center
Sat 09:59:51 AM 45.7667 -52.2500 263° West 490 564 37,100  Level Gander Center
Sat 10:00:07 AM 45.7667 -52.3333 270° West 490 564 37,100  Level Gander Center
Sat 10:00:54 AM 45.7500 -52.4500 258° West 500 575 37,100  Level Moncton Center
Sat 10:01:54 AM 45.7333 -52.6833 264° West 500 575 37,100  Level Moncton Center
Sat 10:02:54 AM 45.7167 -52.8500 262° West 500 575 37,100  Level Moncton Center
Sat 10:03:54 AM 45.7000 -53.0667 264° West 490 564 37,100  Level Moncton Center
Sat 10:04:54 AM 45.6833 -53.2333 262° West 490 564 37,100  Level Moncton Center
Sat 10:05:54 AM 45.6667 -53.4333 263° West 490 564 37,100  Level Moncton Center
Sat 10:06:51 AM 45.6500 -53.6167 263° West 490 564 37,100  Level Gander Center
Sat 10:07:51 AM 45.6333 -53.8167 263° West 490 564 37,100 400 Level Gander Center
Sat 10:08:51 AM 45.6167 -54.0000 263° West 480 552 37,900 500 Climbing Gander Center
Sat 10:09:51 AM 45.6000 -54.2000 263° West 480 552 38,100 100 Climbing Gander Center
Sat 10:10:51 AM 45.5833 -54.3833 263° West 480 552 38,100  Level Gander Center
Sat 10:11:51 AM 45.5500 -54.5667 256° West 480 552 38,100  Level Gander Center
Sat 10:12:51 AM 45.5333 -54.7500 263° West 490 564 38,100  Level Gander Center
Sat 10:13:51 AM 45.5333 -54.9500 270° West 480 552 38,100  Level Gander Center
Sat 10:14:51 AM 45.4833 -55.1333 249° West 480 552 38,100  Level Gander Center
Sat 10:15:51 AM 45.4833 -55.3167 270° West 490 564 38,100  Level Gander Center
Sat 10:16:51 AM 45.4500 -55.5333 258° West 480 552 38,100  Level Gander Center
Sat 10:17:51 AM 45.4333 -55.7000 262° West 480 552 38,100  Level Gander Center
Sat 10:18:51 AM 45.4167 -55.8833 263° West 480 552 38,100  Level Gander Center
Sat 10:19:54 AM 45.4000 -56.0667 263° West 480 552 38,100  Level Moncton Center
Sat 10:20:51 AM 45.3833 -56.2667 263° West 480 552 38,100  Level Gander Center
Sat 10:21:51 AM 45.3500 -56.4333 254° West 480 552 38,100  Level Gander Center
Sat 10:22:54 AM 45.3167 -56.6333 257° West 480 552 38,100  Level Moncton Center
Sat 10:23:54 AM 45.3000 -56.8333 263° West 480 552 38,100  Level Moncton Center
Sat 10:24:54 AM 45.2833 -57.0167 263° West 480 552 38,100  Level Moncton Center
Sat 10:25:54 AM 45.2667 -57.2167 263° West 480 552 38,100  Level Moncton Center
Sat 10:26:54 AM 45.2333 -57.3833 254° West 480 552 38,100  Level Moncton Center
Sat 10:27:54 AM 45.2000 -57.5833 257° West 480 552 38,100  Level Moncton Center
Sat 10:28:54 AM 45.1833 -57.7667 263° West 480 552 38,100  Level Moncton Center
Sat 10:29:54 AM 45.1500 -57.9667 257° West 480 552 38,100  Level Moncton Center
Sat 10:30:54 AM 45.1333 -58.1333 262° West 470 541 38,100  Level Moncton Center
Sat 10:31:51 AM 45.1000 -58.3333 257° West 480 552 38,100  Level Gander Center
Sat 10:32:51 AM 45.0833 -58.5000 262° West 480 552 38,100  Level Gander Center
Sat 10:33:51 AM 45.0667 -58.6833 263° West 480 552 38,100  Level Gander Center
Sat 10:34:51 AM 45.0333 -58.8833 257° West 480 552 38,100  Level Gander Center
Sat 10:35:51 AM 45.0000 -59.0667 256° West 480 552 38,100  Level Gander Center
Sat 10:36:51 AM 44.9667 -59.2500 256° West 480 552 38,100  Level Gander Center
Sat 10:37:51 AM 44.9667 -59.4167 270° West 480 552 38,100  Level Gander Center
Sat 10:38:51 AM 44.9333 -59.6167 257° West 480 552 38,100  Level Gander Center
Sat 10:39:51 AM 44.9000 -59.8000 256° West 480 552 38,100  Level Gander Center
Sat 10:40:54 AM 44.8667 -59.9833 256° West 480 552 38,100  Level Moncton Center
Sat 10:41:54 AM 44.8500 -60.1667 263° West 480 552 38,100  Level Moncton Center
Sat 10:42:54 AM 44.8167 -60.3333 254° West 480 552 38,100  Level Moncton Center
Sat 10:43:54 AM 44.7667 -60.5333 251° West 470 541 38,100  Level Moncton Center
Sat 10:44:51 AM 44.7667 -60.7000 270° West 470 541 38,100  Level Gander Center
Sat 10:45:51 AM 44.7333 -60.8833 256° West 470 541 38,100  Level Gander Center
Sat 10:46:51 AM 44.7000 -61.0500 254° West 470 541 38,100  Level Gander Center
Sat 10:47:54 AM 44.6667 -61.2500 257° West 470 541 38,100  Level Moncton Center
Sat 10:48:54 AM 44.6333 -61.4167 254° West 470 541 38,100  Level Moncton Center
Sat 10:49:54 AM 44.6000 -61.6000 256° West 470 541 38,100  Level Moncton Center
Sat 10:50:54 AM 44.5667 -61.7833 256° West 470 541 38,100  Level Moncton Center
Sat 10:51:54 AM 44.5500 -61.9500 262° West 470 541 38,100  Level Moncton Center
Sat 10:52:54 AM 44.5167 -62.1500 257° West 470 541 38,100  Level Moncton Center
Sat 10:53:54 AM 44.4833 -62.3167 254° West 470 541 38,100  Level Moncton Center
Sat 10:54:54 AM 44.4500 -62.5000 256° West 470 541 38,100  Level Moncton Center
Sat 10:55:54 AM 44.4167 -62.6667 254° West 470 541 38,100  Level Moncton Center
Sat 10:56:54 AM 44.4000 -62.8333 262° West 470 541 38,100  Level Moncton Center
Sat 10:57:54 AM 44.3667 -63.0167 256° West 470 541 38,100  Level Moncton Center
Sat 10:58:54 AM 44.3333 -63.2000 256° West 470 541 38,100  Level Moncton Center
Sat 10:59:54 AM 44.3000 -63.3667 254° West 470 541 38,100  Level Moncton Center
Sat 11:00:54 AM 44.2500 -63.5500 249° West 470 541 38,100  Level Moncton Center
Sat 11:01:54 AM 44.2167 -63.7167 254° West 470 541 38,100  Level Moncton Center
Sat 11:02:54 AM 44.1833 -63.9000 256° West 470 541 38,100  Level Moncton Center
Sat 11:03:54 AM 44.1500 -64.1000 257° West 480 552 38,100  Level Moncton Center
Sat 11:04:51 AM 44.1167 -64.2500 253° West 480 552 38,100  Level Gander Center
Sat 11:05:51 AM 44.0833 -64.4333 256° West 480 552 38,100  Level Gander Center
Sat 11:06:51 AM 44.0500 -64.6167 256° West 480 552 38,100  Level Gander Center
Sat 11:07:51 AM 44.0167 -64.7833 255° West 480 552 38,100 -50 Level Gander Center
Sat 11:08:51 AM 43.9833 -64.9833 257° West 480 552 38,000  Descending Gander Center
Sat 11:09:54 AM 43.9500 -65.1667 256° West 480 552 38,100 49 Climbing Moncton Center
Sat 11:10:54 AM 43.9167 -65.3333 255° West 480 552 38,100  Level Moncton Center
Sat 11:11:54 AM 43.8667 -65.5167 249° West 480 552 38,100  Level Moncton Center
Sat 11:12:54 AM 43.8333 -65.7000 256° West 480 552 38,100  Level Moncton Center
Sat 11:13:54 AM 43.8000 -65.8833 256° West 480 552 38,100  Level Moncton Center
Sat 11:14:54 AM 43.7500 -66.0333 245° Southwest 480 552 38,100  Level Moncton Center
Sat 11:15:54 AM 43.7167 -66.2167 256° West 480 552 38,100  Level Moncton Center
Sat 11:16:54 AM 43.6833 -66.4000 256° West 480 552 38,100  Level Moncton Center
Sat 11:18:54 AM 43.6000 -66.7667 253° West 490 564 38,100 -24 Level Moncton Center
Sat 11:21:08 AM 43.5242 -67.1469 255° West 485 558 38,000 -31 Descending Boston Center
Sat 11:22:08 AM 43.4847 -67.2850 249° West 485 558 38,000  Level Boston Center
Sat 11:23:08 AM 43.4231 -67.4964 248° West 490 564 38,000 57 Level Boston Center
Sat 11:23:54 AM 43.3667 -67.6333 241° Southwest 480 552 38,100  Climbing Moncton Center
Sat 11:24:54 AM 43.3167 -67.8167 250° West 480 552 38,000  Descending Moncton Center
Sat 11:25:54 AM 43.2500 -67.9667 239° Southwest 490 564 38,100  Climbing Moncton Center
Sat 11:26:54 AM 43.1667 -68.1000 229° Southwest 490 564 38,000 -50 Descending Moncton Center
Sat 11:27:54 AM 43.0833 -68.2333 229° Southwest 500 575 38,000 -200 Level Moncton Center
Sat 11:28:54 AM 42.9833 -68.4000 231° Southwest 500 575 37,600 -950 Descending Moncton Center
Sat 11:29:54 AM 42.8833 -68.5500 228° Southwest 510 587 36,100 -1,350 Descending Moncton Center
Sat 11:30:54 AM 42.8167 -68.6833 236° Southwest 510 587 34,900 -1,300 Descending Moncton Center
Sat 11:31:54 AM 42.7667 -68.8500 248° West 500 575 33,500 -1,254 Descending Moncton Center
Sat 11:33:08 AM 42.7147 -69.0572 251° West 496 571 32,100 -1,209 Descending Boston Center
Sat 11:34:08 AM 42.6803 -69.2372 255° West 496 571 30,800 -1,500 Descending Boston Center
Sat 11:35:08 AM 42.6483 -69.4392 258° West 502 578 29,100 -1,350 Descending Boston Center
Sat 11:36:08 AM 42.6133 -69.6189 255° West 497 572 28,100 -500 Descending Boston Center
Sat 11:37:08 AM 42.5822 -69.7950 257° West 497 572 28,100 -50 Level Boston Center
Sat 11:38:08 AM 42.5508 -69.9767 257° West 497 572 28,000 -50 Descending Boston Center
Sat 11:39:08 AM 42.5169 -70.1556 256° West 497 572 28,000  Level Boston Center
Sat 11:40:08 AM 42.4831 -70.3369 256° West 497 572 28,000  Level Boston Center
Sat 11:41:08 AM 42.4444 -70.5183 254° West 497 572 28,000  Level Boston Center
Sat 11:42:08 AM 42.4142 -70.6994 257° West 497 572 28,000 -250 Level Boston Center
Sat 11:43:08 AM 42.3833 -70.8800 257° West 497 572 27,500 -800 Descending Boston Center
Sat 11:44:08 AM 42.3461 -71.0636 255° West 497 572 26,400 -1,100 Descending Boston Center
Sat 11:45:08 AM 42.3025 -71.2414 252° West 497 572 25,300 -1,150 Descending Boston Center
Sat 11:46:08 AM 42.2603 -71.4189 252° West 502 578 24,100 -650 Descending Boston Center
Sat 11:47:08 AM 42.2219 -71.5597 250° West 502 578 24,000 -800 Descending Boston Center
Sat 11:48:08 AM 42.1711 -71.7650 252° West 497 572 22,500 -2,000 Descending Boston Center
Sat 11:49:08 AM 42.1325 -71.9250 252° West 479 551 20,000 -2,250 Descending Boston Center
Sat 11:50:08 AM 42.0956 -72.0653 251° West 458 527 18,000 -1,950 Descending Boston Center
Sat 11:51:08 AM 42.0542 -72.2389 252° West 426 490 16,100 -950 Descending Boston Center
Sat 11:52:08 AM 42.0211 -72.3675 251° West 421 484 16,100  Level Boston Center
Sat 11:53:08 AM 41.9814 -72.5294 252° West 415 478 16,100  Level Boston Center
Sat 11:54:08 AM 41.9458 -72.6717 251° West 415 478 16,100  Level Boston Center
Sat 11:55:08 AM 41.9100 -72.8167 252° West 415 478 16,100  Level Boston Center
Sat 11:56:08 AM 41.8761 -72.9642 253° West 415 478 16,100  Level Boston Center
Sat 11:57:08 AM 41.8528 -73.0644 253° West 409 471 16,100  Level Boston Center
Sat 11:58:08 AM 41.8078 -73.2533 252° West 409 471 16,100 -250 Level Boston Center
Sat 11:59:08 AM 41.7711 -73.3975 251° West 409 471 15,600 -750 Descending Boston Center
Sat 12:00:08 PM 41.7364 -73.5389 252° West 409 471 14,600 -1,000 Descending Boston Center
Sat 12:01:08 PM 41.7017 -73.6803 252° West 403 464 13,600 -1,000 Descending Boston Center
Sat 12:02:08 PM 41.6667 -73.8156 251° West 396 456 12,600 -950 Descending Boston Center
Sat 12:03:08 PM 41.6336 -73.9539 252° West 396 456 11,700 -950 Descending Boston Center
Sat 12:04:08 PM 41.6028 -74.0836 252° West 382 440 10,700 -1,000 Descending Boston Center
Sat 12:05:08 PM 41.5469 -74.1819 233° Southwest 350 403 9,700 -1,213 Descending Boston Center
Sat 12:07:06 PM 41.4333 -74.3500 228° Southwest 289 333 7,100 -907 Descending New York TRACON
Sat 12:08:00 PM 41.3833 -74.4000 217° Southwest 293 337 7,100  Level New York TRACON
Sat 12:09:00 PM 41.3167 -74.4333 201° Southwest 286 329 7,100 -350 Level New York TRACON
Sat 12:10:00 PM 41.2333 -74.4667 197° South 290 334 6,400 -500 Descending New York TRACON
Sat 12:11:00 PM 41.1667 -74.5000 201° Southwest 282 325 6,100 -150 Descending New York TRACON
Sat 12:12:00 PM 41.0833 -74.5333 197° South 276 318 6,100  Level New York TRACON
Sat 12:13:00 PM 41.0167 -74.5500 191° South 278 320 6,100 -190 Level New York TRACON
Sat 12:14:06 PM 40.9167 -74.5667 187° South 280 322 5,700 -450 Descending New York TRACON
Sat 12:15:00 PM 40.8500 -74.5667 180° South 273 314 5,200 -316 Descending New York TRACON
Sat 12:16:00 PM 40.7833 -74.5667 180° South 272 313 5,100 -50 Descending New York TRACON
Sat 12:17:00 PM 40.7000 -74.5667 180° South 269 310 5,100  Level New York TRACON
Sat 12:17:54 PM 40.6333 -74.5500 169° South 267 307 5,100  Level New York TRACON
Sat 12:18:54 PM 40.5667 -74.5500 180° South 265 305 5,100 -100 Level New York TRACON
Sat 12:19:54 PM 40.5000 -74.5333 169° South 231 266 4,900 -500 Descending New York TRACON
Sat 12:20:54 PM 40.4500 -74.5000 153° Southeast 210 242 4,100 -800 Descending New York TRACON
Sat 12:21:54 PM 40.4167 -74.4333 123° Southeast 212 244 3,300 -500 Descending New York TRACON
Sat 12:22:54 PM 40.4500 -74.3667 57° Northeast 208 239 3,100 -100 Descending New York TRACON
Sat 12:23:54 PM 40.4833 -74.3167 49° Northeast 201 231 3,100  Level New York TRACON
Sat 12:24:54 PM 40.5333 -74.2667 37° Northeast 195 224 3,100 -263 Level New York TRACON
Sat 12:25:48 PM 40.5667 -74.2500 21° North 165 190 2,600 -737 Descending New York TRACON
Sat 12:26:48 PM 40.6000 -74.2167 37° Northeast 167 192 1,700 -900 Descending New York TRACON

Login

Don't have an account? Register now (free) for customized features, flight alerts, and more!